Wilmington, VT (05363)

4:04 AM EDT on September 02, 2015 (GMT -0400)
Wastewater Treatment Plant | | Change Station
CLOSE
Current Station
Personal Weather Station
Location: Wilmington, VT
Elevation: 1500 ft
Nearby Weather Stations

Elev 1500 ft 42.87 °N, 72.88 °W | Updated 3 minutes ago

Partly Cloudy
Partly Cloudy
54.2 °F
Feels Like 54.2 °F
N
0.0
Wind Variable Wind from SE
Gusts 0.0 mph

Today
High -- | Low -- °F
--% Chance of Precip.
Yesterday
High -- | Low -- °F
Precip. -- in
6:16 AM 7:24 PM
Waning Gibbous, 82% visible
Pressure 30.03 in
Visibility 2.0 miles
Clouds Clear
Dew Point 53 °F
Humidity 97%
Rainfall 0.00 in
Snow Depth Not available.
UV 0 out of 12
Pollen 9.30 out of 12
Air Quality Not available.
Flu Activity Not available.
METAR KDDH 020754Z AUTO 00000KT 2SM BR CLR 13/13 A3004 RMK AO2 VIS 3/4V5 SLP168 T01330128 $
Pressure 30.03 in
Visibility 2.0 miles
Clouds Clear
Dew Point 53 °F
Humidity 97%
Rainfall 0.00 in
Snow Depth Not available.
UV 0 out of 12
Pollen 9.30 out of 12
Air Quality Not available.
Flu Activity Not available.
METAR KDDH 020754Z AUTO 00000KT 2SM BR CLR 13/13 A3004 RMK AO2 VIS 3/4V5 SLP168 T01330128 $

10-Day Weather Forecast

×

Almanac

Astronomy

Sep. 02, 2015 Rise Set
Actual Time
Civil Twilight
Nautical Twilight
Astronomical Twilight
Moon
Length of Visible Light
Length of Day
Tomorrow will be .
, % of the Moon is Illuminated

Today's Extremes

State Highs State Lows

Community

WunderPhotos

Upload Photos

1,851,727 photos uploaded!

WunderBlogs® & News

Nearby

Air Quality

  Air Quality AQ Index Pollutant
Not available.

Snow Depth

Station Depth Elevation

Earthquake Activity

City Distance Mag. Time & Date
Minimum magnitude displayed is 2.5.

Coastal Water Temperatures

Place Temperature

Stations

Nearby Weather Stations

Station Location Temp. Windchill Dew Point Humidity Wind Precip. Elev Updated Type